Yarmouth Port, MA (02675)

5:07 PM EDT on August 29, 2015 (GMT -0400)
WA1FSC - Yarmouth Port | | Change Station
CLOSE
Current Station
Personal Weather Station
Location: Yarmouth, MA
Elevation: 33 ft
Nearby Weather Stations

Elev 33 ft 41.71 °N, 70.23 °W | Updated 22 minutes ago

Clear
Clear
77.5 °F
Feels Like 79 °F
N
4.2
Wind Variable Wind from SW

Today
High -- | Low -- °F
--% Chance of Precip.
Yesterday
High -- | Low -- °F
Precip. -- in
6:03 AM 7:19 PM
Full, 100% visible
Pressure 30.12 in
Visibility 10.0 miles
Clouds Clear
Heat Index 79 °F
Dew Point 57 °F
Humidity 50%
Rainfall 0.00 in
Snow Depth Not available.
UV 2 out of 12
Pollen 10.30 out of 12
Air Quality Not available.
Flu Activity Not available.
METAR KHYA 292056Z 23013KT 10SM CLR 24/12 A3011 RMK AO2 SLP197 T02440117 56014
Pressure 30.12 in
Visibility 10.0 miles
Clouds Clear
Heat Index 79 °F
Dew Point 57 °F
Humidity 50%
Rainfall 0.00 in
Snow Depth Not available.
UV 2 out of 12
Pollen 10.30 out of 12
Air Quality Not available.
Flu Activity Not available.
METAR KHYA 292056Z 23013KT 10SM CLR 24/12 A3011 RMK AO2 SLP197 T02440117 56014

10-Day Weather Forecast

×

Almanac

Astronomy

Aug. 29, 2015 Rise Set
Actual Time
Civil Twilight
Nautical Twilight
Astronomical Twilight
Moon
Length of Visible Light
Length of Day
Tomorrow will be .
, % of the Moon is Illuminated

Today's Extremes

State Highs State Lows

Community

WunderPhotos

Upload Photos

1,850,800 photos uploaded!

WunderBlogs® & News

Nearby

Air Quality

  Air Quality AQ Index Pollutant
Not available.

Snow Depth

Station Depth Elevation

Earthquake Activity

City Distance Mag. Time & Date
Minimum magnitude displayed is 2.5.

Coastal Water Temperatures

Place Temperature

Stations

Nearby Weather Stations

Station Location Temp. Windchill Dew Point Humidity Wind Precip. Elev Updated Type